Terminal Aerodrome Forecast
Issued by NWS

Current Version | Previous Version | Text Only | Print | Product List | Glossary On
Versions: 1 2 3 4 5 6 7 8 9 10 11 12
000
FTUS45 KABQ 051127
TAFROW
TAF
KROW 051127Z 0512/0612 VRB04KT P6SM FEW250
     FM051700 16012KT P6SM SCT250
     FM052000 16014G24KT P6SM SCT250
     FM060200 17010KT P6SM BKN200=

USA.gov is the U.S. government's official web portal to all federal, state and local government web resources and services.